Latest Weather Observations for Barrow Island

IDW60801

Issued at 11:32 pm WST Wednesday 29 July 2015 (issued every 30 minutes, with the page automatically refreshed every 10 minutes)

About weather observations | Map of weather stations | Latest weather observations for WA | Other Formats
Station Details ID: 005094 Name: BARROW ISLAND AIRPORT Lat: -20.88 Lon: 115.41 Height: 6.4 m
Data from the previous 72 hours. | See also: Recent months at Barrow Island
Date/Time
WST
Temp
°C
App
Temp
°C
Dew
Point
Rel
Hum
%
Delta-T
°C
Wind Press
QNH
hPa
Press
MSL
hPa
Rain
since 9 am
mm
Dir
 
Spd
km/h
Gust
km/h
Spd
kts
Gust
kts
29/11:30pm 18.9 19.7 15.9 83 1.8 N 6 6 3 3 1019.1 - 0.0
29/11:00pm 20.0 22.6 17.4 85 1.6 CALM 0 4 0 2 1019.1 - 0.0
29/10:30pm 20.2 22.5 16.8 81 2.1 CALM 0 0 0 0 1019.2 - 0.0
29/10:00pm 20.0 20.4 14.8 72 3.0 W 6 9 3 5 1019.3 - 0.0
29/09:30pm 22.7 24.4 17.2 71 3.4 SW 4 6 2 3 1019.3 - 0.0
29/09:00pm 22.0 22.4 15.4 66 3.9 SSW 7 9 4 5 1019.4 1019.4 0.0
29/08:30pm 21.7 22.9 13.9 61 4.5 CALM 0 2 0 1 1019.1 - 0.0
29/08:00pm 21.2 20.8 12.9 59 4.7 N 7 11 4 6 1018.6 - 0.0
29/07:30pm 21.3 20.3 12.4 57 5.0 N 9 13 5 7 1018.1 - 0.0
29/07:00pm 22.5 20.8 12.4 52 5.7 N 13 15 7 8 1017.9 - 0.0
29/06:30pm 23.2 21.6 13.9 56 5.4 N 15 17 8 9 1017.7 - 0.0
29/06:00pm 24.1 22.4 14.8 56 5.5 NNE 17 19 9 10 1017.5 1017.5 0.0
29/05:30pm 25.5 23.4 14.6 51 6.5 NNE 19 22 10 12 1017.3 - 0.0
29/05:00pm 26.4 23.3 13.5 45 7.6 NNE 22 28 12 15 1017.3 - 0.0
29/04:30pm 27.0 24.0 13.7 44 7.9 NNE 22 26 12 14 1017.3 - 0.0
29/04:00pm 27.5 24.4 12.3 39 8.8 NNE 20 24 11 13 1017.5 - 0.0
29/03:30pm 28.0 25.6 12.8 39 8.9 NE 17 22 9 12 1017.5 - 0.0
29/03:00pm 28.3 25.4 10.9 34 9.9 NE 17 20 9 11 1017.7 1017.7 0.0
29/02:30pm 28.2 27.1 14.4 42 8.3 NE 13 17 7 9 1017.8 - 0.0
29/02:00pm 26.5 26.4 17.0 56 5.9 NE 13 15 7 8 1017.9 - 0.0
29/01:30pm 25.0 25.6 17.7 64 4.6 ENE 11 13 6 7 1018.2 - 0.0
29/01:00pm 24.9 24.9 17.1 62 4.8 ENE 13 15 7 8 1018.6 - 0.0
29/12:30pm 24.5 24.6 17.5 65 4.4 ENE 13 17 7 9 1019.0 - 0.0
29/12:00pm 24.3 24.9 17.8 67 4.1 ENE 11 13 6 7 1019.5 1019.5 0.0
29/11:30am 23.9 24.7 17.4 67 4.0 E 9 9 5 5 1020.0 - 0.0
29/11:00am 24.3 25.3 17.8 67 4.1 E 9 11 5 6 1020.2 - 0.0
29/10:30am 24.2 25.2 17.7 67 4.0 ESE 9 11 5 6 1020.3 - 0.0
29/10:00am 23.5 23.9 17.3 68 3.8 ESE 11 13 6 7 1020.5 - 0.0
29/09:30am 23.3 23.4 16.4 65 4.2 SE 11 13 6 7 1020.6 - 0.0
29/09:00am 23.2 24.0 17.4 70 3.6 SSE 9 13 5 7 1020.6 1020.6 0.0
29/08:30am 22.2 23.1 17.6 75 2.8 S 9 9 5 5 1020.4 - 0.0
29/08:00am 21.7 22.8 18.1 80 2.2 S 9 9 5 5 1020.1 - 0.0
29/07:30am 20.9 22.3 17.7 82 2.0 SSE 7 9 4 5 1019.7 - 0.0
29/07:00am 20.1 20.7 16.7 81 2.1 SSE 9 11 5 6 1019.4 - 0.0
29/06:30am 20.1 20.6 16.5 80 2.2 SSE 9 9 5 5 1019.2 - 0.0
29/06:00am 20.3 20.6 17.1 82 1.9 SSE 11 13 6 7 1019.0 1019.0 0.0
29/05:30am 20.2 20.6 17.2 83 1.8 SSE 11 13 6 7 1018.9 - 0.0
29/05:00am 20.2 20.3 17.4 84 1.7 SE 13 15 7 8 1018.7 - 0.0
29/04:30am 20.4 20.6 17.6 84 1.7 SE 13 15 7 8 1018.7 - 0.0
29/04:00am 20.3 20.1 17.7 85 1.6 SSE 15 17 8 9 1018.7 - 0.0
29/03:30am 20.5 20.5 18.1 86 1.5 SE 15 17 8 9 1018.7 - 0.0
29/03:00am 20.4 20.7 18.0 86 1.5 SE 13 13 7 7 1018.8 1018.8 0.0
29/02:30am 20.3 21.0 17.9 86 1.5 SE 11 11 6 6 1019.0 - 0.0
29/02:00am 20.6 21.4 18.2 86 1.5 SE 11 13 6 7 1019.3 - 0.0
29/01:30am 20.3 21.3 17.7 85 1.6 S 9 11 5 6 1019.4 - 0.0
29/01:00am 19.1 19.8 16.1 83 1.8 S 7 9 4 5 1019.7 - 0.0
29/12:30am 17.7 18.6 14.0 79 2.1 NNE 2 7 1 4 1020.0 - 0.0
29/12:00am 19.2 20.8 14.9 76 2.5 CALM 0 0 0 0 1019.9 1019.9 0.0
 
Date/Time
WST
Temp
°C
App
Temp
°C
Dew
Point
Rel
Hum
%
Delta-T
°C
Wind Press
QNH
hPa
Press
MSL
hPa
Rain
since 9 am
mm
Dir
 
Spd
km/h
Gust
km/h
Spd
kts
Gust
kts
28/11:30pm 19.5 21.3 15.4 77 2.4 CALM 0 0 0 0 1020.1 - 0.0
28/11:00pm 19.2 19.4 14.7 75 2.6 N 7 9 4 5 1020.3 - 0.0
28/10:30pm 18.6 18.6 14.1 75 2.6 N 7 9 4 5 1020.6 - 0.0
28/10:00pm 18.2 17.7 13.7 75 2.6 N 9 9 5 5 1020.4 - 0.0
28/09:30pm 18.4 17.7 13.3 72 2.9 N 9 11 5 6 1020.3 - 0.0
28/09:00pm 18.8 18.2 13.4 71 3.1 N 9 11 5 6 1020.2 1020.2 0.0
28/08:30pm 19.1 18.9 13.5 70 3.2 NNW 7 7 4 4 1020.3 - 0.0
28/08:00pm 19.2 18.6 13.4 69 3.3 N 9 9 5 5 1020.3 - 0.0
28/07:30pm 19.6 18.9 13.3 67 3.6 N 9 11 5 6 1020.2 - 0.0
28/07:00pm 20.4 20.3 13.8 66 3.8 N 7 9 4 5 1020.0 - 0.0
28/06:30pm 21.4 21.8 14.8 66 3.9 N 6 7 3 4 1019.9 - 0.0
28/06:00pm 22.7 23.0 16.0 66 4.0 NNE 9 11 5 6 1019.5 1019.5 0.0
28/05:30pm 23.7 23.5 15.7 61 4.8 NE 11 15 6 8 1019.3 - 0.0
28/05:00pm 24.1 22.2 15.3 58 5.3 NNE 19 24 10 13 1019.0 - 0.0
28/04:30pm 24.4 22.8 16.1 60 5.1 NE 19 22 10 12 1018.8 - 0.0
28/04:00pm 24.2 22.2 16.5 62 4.7 NE 22 24 12 13 1018.7 - 0.0
28/03:30pm 24.6 22.9 16.3 60 5.1 NE 20 24 11 13 1018.7 - 0.0
28/03:00pm 24.5 22.7 16.0 59 5.2 NE 20 24 11 13 1018.5 1018.5 0.0
28/02:30pm 24.5 22.4 16.2 60 5.1 ENE 22 24 12 13 1018.6 - 0.0
28/02:00pm 24.7 22.0 16.7 61 4.9 NE 26 32 14 17 1018.7 - 0.0
28/01:30pm 24.4 20.6 14.8 55 5.7 NE 28 33 15 18 1019.1 - 0.0
28/01:00pm 24.4 21.2 15.3 57 5.5 NE 26 32 14 17 1019.6 - 0.0
28/12:30pm 24.1 20.3 14.8 56 5.5 NE 28 32 15 17 1020.1 - 0.0
28/12:00pm 23.8 20.0 15.8 61 4.8 NE 30 33 16 18 1020.4 1020.4 0.0
28/11:30am 23.4 19.3 14.9 59 5.1 NE 30 35 16 19 1020.8 - 0.0
28/11:00am 23.5 20.3 15.3 60 4.9 NE 26 30 14 16 1021.3 - 0.0
28/10:30am 23.3 20.3 14.8 59 5.0 ENE 24 28 13 15 1021.5 - 0.0
28/10:00am 22.9 20.9 15.0 61 4.7 ENE 19 20 10 11 1021.9 - 0.0
28/09:30am 22.4 20.3 14.8 62 4.5 ENE 19 20 10 11 1021.7 - 0.0
28/09:00am 22.1 20.8 14.7 63 4.3 E 15 17 8 9 1021.8 1021.8 0.0
28/08:30am 22.3 21.0 14.9 63 4.4 E 15 17 8 9 1021.8 - 0.0
28/08:00am 21.3 19.8 14.2 64 4.1 E 15 17 8 9 1021.5 - 0.0
28/07:30am 20.7 19.4 14.8 69 3.5 ESE 15 17 8 9 1021.3 - 0.0
28/07:00am 20.3 19.0 14.9 71 3.2 ESE 15 17 8 9 1021.3 - 0.0
28/06:30am 20.2 19.4 15.2 73 2.9 ESE 13 13 7 7 1021.0 - 0.0
28/06:00am 20.2 19.3 14.8 71 3.2 E 13 15 7 8 1020.5 1020.5 0.0
28/05:30am 20.1 19.7 15.1 73 2.9 ESE 11 13 6 7 1020.3 - 0.0
28/05:00am 20.1 19.7 15.3 74 2.8 ESE 11 13 6 7 1020.0 - 0.0
28/04:30am 20.1 19.7 15.3 74 2.8 E 11 13 6 7 1019.9 - 0.0
28/04:00am 19.9 20.2 16.0 78 2.3 ESE 9 11 5 6 1020.0 - 0.0
28/03:30am 20.0 20.2 15.8 77 2.5 ESE 9 11 5 6 1020.0 - 0.0
28/03:00am 19.8 19.8 16.3 80 2.1 SE 11 13 6 7 1020.1 1020.1 0.0
28/02:30am 19.6 19.1 16.8 84 1.7 SE 15 17 8 9 1020.3 - 0.0
28/02:00am 20.1 20.2 18.4 90 1.1 SE 15 17 8 9 1020.5 - 0.0
28/01:30am 20.4 20.6 18.5 89 1.2 SE 15 17 8 9 1020.5 - 0.0
28/01:00am 20.2 21.1 18.5 90 1.1 ENE 11 13 6 7 1020.4 - 0.0
28/12:30am 19.0 18.9 17.0 88 1.2 NE 13 15 7 8 1020.4 - 0.0
28/12:00am 18.9 19.0 16.5 86 1.4 NE 11 13 6 7 1020.7 1020.7 0.0
 
Date/Time
WST
Temp
°C
App
Temp
°C
Dew
Point
Rel
Hum
%
Delta-T
°C
Wind Press
QNH
hPa
Press
MSL
hPa
Rain
since 9 am
mm
Dir
 
Spd
km/h
Gust
km/h
Spd
kts
Gust
kts
27/11:30pm 18.9 18.8 16.1 84 1.7 NE 11 11 6 6 1020.9 - 0.0
27/11:00pm 18.8 18.1 15.5 81 1.9 NE 13 15 7 8 1021.0 - 0.0
27/10:30pm 18.6 17.6 14.5 77 2.4 NNE 13 15 7 8 1021.2 - 0.0
27/10:00pm 19.0 17.6 14.5 75 2.6 NNE 15 17 8 9 1021.3 - 0.0
27/09:30pm 19.8 17.8 15.0 74 2.8 NNE 19 22 10 12 1021.1 - 0.0
27/09:00pm 19.9 18.3 15.1 74 2.8 NNE 17 19 9 10 1021.0 1021.0 0.0
27/08:30pm 20.6 19.1 15.2 71 3.2 NNE 17 20 9 11 1020.8 - 0.0
27/08:00pm 21.0 19.1 15.3 70 3.4 NNE 19 22 10 12 1020.3 - 0.0
27/07:30pm 20.6 18.4 14.5 68 3.6 NNE 19 20 10 11 1019.9 - 0.0
27/07:00pm 21.0 18.2 14.4 66 3.9 NNE 22 24 12 13 1019.8 - 0.0
27/06:30pm 21.5 18.6 15.1 67 3.8 NNE 24 28 13 15 1019.6 - 0.0
27/06:00pm 22.1 19.2 15.2 65 4.1 NE 24 28 13 15 1019.3 1019.3 0.0
27/05:30pm 22.6 18.5 15.0 62 4.5 NE 30 33 16 18 1019.0 - 0.0
27/05:00pm 23.0 18.9 14.8 60 4.9 NE 30 35 16 19 1019.2 - 0.0
27/04:30pm 23.3 19.6 15.1 60 4.9 NE 28 33 15 18 1019.3 - 0.0
27/04:00pm 23.2 19.9 15.0 60 4.9 NE 26 30 14 16 1019.3 - 0.0
27/03:30pm 23.6 19.9 14.9 58 5.2 NE 28 32 15 17 1019.3 - 0.0
27/03:00pm 23.5 19.4 13.9 55 5.6 ENE 28 32 15 17 1019.4 1019.4 0.0
27/02:30pm 23.4 19.4 14.1 56 5.5 ENE 28 32 15 17 1019.7 - 0.0
27/02:00pm 23.5 19.0 15.0 59 5.1 ENE 32 35 17 19 1019.9 - 0.0
27/01:30pm 23.3 18.5 14.0 56 5.4 ENE 32 37 17 20 1020.5 - 0.0
27/01:00pm 23.1 18.1 14.1 57 5.3 ENE 33 41 18 22 1021.1 - 0.0
27/12:30pm 22.8 16.8 13.3 55 5.5 ENE 37 44 20 24 1021.4 - 0.0
27/12:00pm 22.5 16.4 13.0 55 5.4 ENE 37 43 20 23 1022.1 1022.1 0.0
27/11:30am 22.0 16.4 13.4 58 5.0 ENE 35 39 19 21 1022.5 - 0.0
27/11:00am 21.8 15.5 12.4 55 5.3 ENE 37 44 20 24 1023.1 - 0.0
27/10:30am 21.4 14.1 11.7 54 5.4 ENE 41 48 22 26 1023.4 - 0.0
27/10:00am 21.3 14.1 11.9 55 5.3 ENE 41 48 22 26 1023.4 - 0.0
27/09:30am 21.2 14.7 11.8 55 5.2 ENE 37 46 20 25 1023.6 - 0.0
27/09:00am 21.0 14.4 11.3 54 5.3 ENE 37 46 20 25 1023.6 1023.6 0.0
27/08:30am 20.9 14.7 12.6 59 4.7 E 37 43 20 23 1023.3 - 0.0
27/08:00am 20.7 14.4 12.4 59 4.7 E 37 43 20 23 1023.0 - 0.0
27/07:30am 20.8 15.1 13.0 61 4.4 E 35 44 19 24 1022.8 - 0.0
27/07:00am 20.7 14.8 13.6 64 4.1 E 37 43 20 23 1022.8 - 0.0
27/06:30am 20.6 14.4 12.6 60 4.5 E 37 43 20 23 1022.3 - 0.0
27/06:00am 20.7 13.8 12.7 60 4.5 E 41 48 22 26 1021.8 1021.8 0.0
27/05:30am 20.7 13.7 12.4 59 4.7 E 41 48 22 26 1021.5 - 0.0
27/05:00am 20.8 14.3 13.0 61 4.4 E 39 46 21 25 1021.2 - 0.0
27/04:30am 20.9 14.3 12.6 59 4.7 E 39 43 21 23 1021.2 - 0.0
27/04:00am 21.0 15.0 12.2 57 4.9 E 35 43 19 23 1021.4 - 0.0
27/03:30am 21.1 14.6 12.8 59 4.7 ENE 39 46 21 25 1021.3 - 0.0
27/03:00am 20.8 17.8 14.7 68 3.6 E 24 28 13 15 1021.5 1021.5 0.0
27/02:30am 20.4 19.0 16.6 79 2.3 SE 19 20 10 11 1021.8 - 0.0
27/02:00am 20.4 19.6 17.0 81 2.1 SE 17 19 9 10 1022.0 - 0.0
27/01:30am 20.3 19.4 16.9 81 2.1 SSE 17 19 9 10 1022.0 - 0.0
27/01:00am 20.2 19.5 17.4 84 1.7 SSE 17 20 9 11 1022.2 - 0.0
27/12:30am 20.4 19.6 18.0 86 1.5 SSE 19 24 10 13 1022.3 - 0.0
27/12:00am 20.6 19.6 18.0 85 1.6 SE 20 24 11 13 1022.4 1022.4 0.0

Other Formats:

Comma delimited format used in spreadsheet applications
http://www.bom.gov.au/fwo/IDW60801/IDW60801.95304.axf

JavaScript Object Notation format (JSON) in row-major order
http://www.bom.gov.au/fwo/IDW60801/IDW60801.95304.json